sensor_id;sensor_type;location;lat;lon;timestamp;pressure;altitude;pressure_sealevel;temperature;humidity
61394;BME280;48555;50.952;-0.120;2023-08-17T00:00:57;101505.56;;;17.47;75.18
61394;BME280;48555;50.952;-0.120;2023-08-17T00:03:22;101495.41;;;17.52;74.97
61394;BME280;48555;50.952;-0.120;2023-08-17T00:05:47;101489.84;;;17.55;74.85
61394;BME280;48555;50.952;-0.120;2023-08-17T00:08:13;101495.28;;;17.54;74.57
61394;BME280;48555;50.952;-0.120;2023-08-17T00:10:38;101490.69;;;17.56;74.75
61394;BME280;48555;50.952;-0.120;2023-08-17T00:13:04;101493.47;;;17.54;74.81
61394;BME280;48555;50.952;-0.120;2023-08-17T00:15:29;101491.22;;;17.49;74.99
61394;BME280;48555;50.952;-0.120;2023-08-17T00:17:55;101495.97;;;17.46;75.00
61394;BME280;48555;50.952;-0.120;2023-08-17T00:20:20;101488.47;;;17.41;75.27
61394;BME280;48555;50.952;-0.120;2023-08-17T00:22:45;101494.69;;;17.40;75.44
61394;BME280;48555;50.952;-0.120;2023-08-17T00:25:11;101488.59;;;17.40;75.54
61394;BME280;48555;50.952;-0.120;2023-08-17T00:27:36;101490.41;;;17.39;75.41
61394;BME280;48555;50.952;-0.120;2023-08-17T00:30:02;101490.50;;;17.38;75.52
61394;BME280;48555;50.952;-0.120;2023-08-17T00:32:27;101498.63;;;17.46;75.34
61394;BME280;48555;50.952;-0.120;2023-08-17T00:34:52;101495.69;;;17.49;75.24
61394;BME280;48555;50.952;-0.120;2023-08-17T00:37:18;101496.84;;;17.56;75.04
61394;BME280;48555;50.952;-0.120;2023-08-17T00:39:43;101500.03;;;17.60;74.94
61394;BME280;48555;50.952;-0.120;2023-08-17T00:42:08;101498.78;;;17.64;74.72
61394;BME280;48555;50.952;-0.120;2023-08-17T00:44:35;101506.31;;;17.68;74.89
61394;BME280;48555;50.952;-0.120;2023-08-17T00:47:00;101506.03;;;17.71;74.89
61394;BME280;48555;50.952;-0.120;2023-08-17T00:49:26;101498.81;;;17.74;74.88
61394;BME280;48555;50.952;-0.120;2023-08-17T00:51:51;101498.09;;;17.71;74.61
61394;BME280;48555;50.952;-0.120;2023-08-17T00:54:23;101501.84;;;17.69;74.72
61394;BME280;48555;50.952;-0.120;2023-08-17T00:56:49;101495.03;;;17.66;74.53
61394;BME280;48555;50.952;-0.120;2023-08-17T00:59:15;101504.91;;;17.64;74.86
61394;BME280;48555;50.952;-0.120;2023-08-17T01:01:40;101494.75;;;17.60;74.81
61394;BME280;48555;50.952;-0.120;2023-08-17T01:04:06;101501.97;;;17.58;75.12
61394;BME280;48555;50.952;-0.120;2023-08-17T01:06:31;101494.59;;;17.52;75.25
61394;BME280;48555;50.952;-0.120;2023-08-17T01:08:56;101489.44;;;17.50;75.60
61394;BME280;48555;50.952;-0.120;2023-08-17T01:11:37;101499.44;;;17.46;75.72
61394;BME280;48555;50.952;-0.120;2023-08-17T01:14:10;101494.03;;;17.38;76.43
61394;BME280;48555;50.952;-0.120;2023-08-17T01:16:42;101487.84;;;17.28;76.59
61394;BME280;48555;50.952;-0.120;2023-08-17T01:19:19;101492.59;;;17.24;76.82
61394;BME280;48555;50.952;-0.120;2023-08-17T01:21:50;101479.19;;;17.16;77.20
61394;BME280;48555;50.952;-0.120;2023-08-17T01:24:15;101478.66;;;17.13;77.55
61394;BME280;48555;50.952;-0.120;2023-08-17T01:26:41;101482.22;;;17.12;77.64
61394;BME280;48555;50.952;-0.120;2023-08-17T01:29:06;101470.44;;;17.06;77.89
61394;BME280;48555;50.952;-0.120;2023-08-17T01:31:37;101478.34;;;17.06;78.14
61394;BME280;48555;50.952;-0.120;2023-08-17T01:34:08;101471.66;;;17.02;78.79
61394;BME280;48555;50.952;-0.120;2023-08-17T01:36:37;101468.28;;;17.00;79.53
61394;BME280;48555;50.952;-0.120;2023-08-17T01:39:05;101467.47;;;16.99;79.63
61394;BME280;48555;50.952;-0.120;2023-08-17T01:41:32;101467.47;;;16.99;79.74
61394;BME280;48555;50.952;-0.120;2023-08-17T01:43:59;101465.66;;;17.00;80.12
61394;BME280;48555;50.952;-0.120;2023-08-17T01:46:29;101444.63;;;16.89;80.22
61394;BME280;48555;50.952;-0.120;2023-08-17T01:48:55;101461.34;;;16.99;80.49
61394;BME280;48555;50.952;-0.120;2023-08-17T01:51:21;101462.88;;;17.01;80.51
61394;BME280;48555;50.952;-0.120;2023-08-17T01:53:46;101453.41;;;16.99;80.85
61394;BME280;48555;50.952;-0.120;2023-08-17T01:56:12;101444.22;;;16.93;80.58
61394;BME280;48555;50.952;-0.120;2023-08-17T01:58:37;101456.22;;;16.97;81.23
61394;BME280;48555;50.952;-0.120;2023-08-17T02:01:03;101457.31;;;16.95;81.35
61394;BME280;48555;50.952;-0.120;2023-08-17T02:03:28;101453.97;;;16.93;81.56
61394;BME280;48555;50.952;-0.120;2023-08-17T02:05:55;101454.78;;;16.93;81.61
61394;BME280;48555;50.952;-0.120;2023-08-17T02:08:21;101458.25;;;16.94;81.91
61394;BME280;48555;50.952;-0.120;2023-08-17T02:10:46;101455.34;;;16.97;81.52
61394;BME280;48555;50.952;-0.120;2023-08-17T02:13:12;101458.69;;;16.99;81.77
61394;BME280;48555;50.952;-0.120;2023-08-17T02:15:38;101461.06;;;17.02;81.40
61394;BME280;48555;50.952;-0.120;2023-08-17T02:18:04;101441.59;;;16.93;81.34
61394;BME280;48555;50.952;-0.120;2023-08-17T02:20:30;101454.56;;;17.06;81.52
61394;BME280;48555;50.952;-0.120;2023-08-17T02:22:55;101461.63;;;17.06;81.71
61394;BME280;48555;50.952;-0.120;2023-08-17T02:25:20;101453.03;;;17.03;81.82
61394;BME280;48555;50.952;-0.120;2023-08-17T02:27:46;101456.50;;;17.04;81.94
61394;BME280;48555;50.952;-0.120;2023-08-17T02:30:12;101448.28;;;16.97;82.10
61394;BME280;48555;50.952;-0.120;2023-08-17T02:32:37;101454.25;;;16.99;82.35
61394;BME280;48555;50.952;-0.120;2023-08-17T02:35:03;101457.03;;;16.98;82.49
61394;BME280;48555;50.952;-0.120;2023-08-17T02:37:28;101452.72;;;16.97;82.68
61394;BME280;48555;50.952;-0.120;2023-08-17T02:39:54;101461.63;;;16.96;82.82
61394;BME280;48555;50.952;-0.120;2023-08-17T02:42:19;101449.50;;;16.93;82.90
61394;BME280;48555;50.952;-0.120;2023-08-17T02:44:45;101452.84;;;16.95;82.90
61394;BME280;48555;50.952;-0.120;2023-08-17T02:47:10;101444.09;;;16.95;82.92
61394;BME280;48555;50.952;-0.120;2023-08-17T02:49:35;101456.06;;;16.99;83.06
61394;BME280;48555;50.952;-0.120;2023-08-17T02:52:01;101450.25;;;17.05;82.89
61394;BME280;48555;50.952;-0.120;2023-08-17T02:54:26;101451.50;;;17.11;82.27
61394;BME280;48555;50.952;-0.120;2023-08-17T02:56:51;101447.38;;;17.18;82.04
61394;BME280;48555;50.952;-0.120;2023-08-17T02:59:17;101453.06;;;17.23;81.67
61394;BME280;48555;50.952;-0.120;2023-08-17T03:01:43;101446.66;;;17.25;81.53
61394;BME280;48555;50.952;-0.120;2023-08-17T03:04:09;101442.50;;;17.23;81.18
61394;BME280;48555;50.952;-0.120;2023-08-17T03:06:34;101455.31;;;17.28;81.51
61394;BME280;48555;50.952;-0.120;2023-08-17T03:08:59;101448.38;;;17.27;81.33
61394;BME280;48555;50.952;-0.120;2023-08-17T03:11:25;101441.53;;;17.24;81.61
61394;BME280;48555;50.952;-0.120;2023-08-17T03:13:50;101450.41;;;17.23;81.26
61394;BME280;48555;50.952;-0.120;2023-08-17T03:16:15;101442.75;;;17.20;81.61
61394;BME280;48555;50.952;-0.120;2023-08-17T03:18:41;101436.53;;;17.21;81.52
61394;BME280;48555;50.952;-0.120;2023-08-17T03:21:06;101443.06;;;17.27;81.36
61394;BME280;48555;50.952;-0.120;2023-08-17T03:23:32;101441.81;;;17.31;81.44
61394;BME280;48555;50.952;-0.120;2023-08-17T03:25:57;101444.19;;;17.34;81.25
61394;BME280;48555;50.952;-0.120;2023-08-17T03:28:23;101449.31;;;17.35;81.11
61394;BME280;48555;50.952;-0.120;2023-08-17T03:30:49;101448.66;;;17.33;81.09
61394;BME280;48555;50.952;-0.120;2023-08-17T03:33:15;101448.94;;;17.40;81.21
61394;BME280;48555;50.952;-0.120;2023-08-17T03:35:40;101446.16;;;17.41;80.97
61394;BME280;48555;50.952;-0.120;2023-08-17T03:38:05;101446.84;;;17.43;80.88
61394;BME280;48555;50.952;-0.120;2023-08-17T03:40:31;101445.03;;;17.44;81.05
61394;BME280;48555;50.952;-0.120;2023-08-17T03:42:56;101452.84;;;17.45;81.08
61394;BME280;48555;50.952;-0.120;2023-08-17T03:45:21;101450.91;;;17.47;81.02
61394;BME280;48555;50.952;-0.120;2023-08-17T03:47:47;101452.56;;;17.48;81.00
61394;BME280;48555;50.952;-0.120;2023-08-17T03:50:12;101457.84;;;17.48;81.14
61394;BME280;48555;50.952;-0.120;2023-08-17T03:52:37;101455.19;;;17.48;81.32
61394;BME280;48555;50.952;-0.120;2023-08-17T03:55:03;101451.44;;;17.41;81.53
61394;BME280;48555;50.952;-0.120;2023-08-17T03:57:31;101458.81;;;17.47;81.63
61394;BME280;48555;50.952;-0.120;2023-08-17T03:59:57;101447.53;;;17.45;81.87
61394;BME280;48555;50.952;-0.120;2023-08-17T04:02:22;101457.72;;;17.50;81.56
61394;BME280;48555;50.952;-0.120;2023-08-17T04:04:47;101458.56;;;17.51;81.56
61394;BME280;48555;50.952;-0.120;2023-08-17T04:07:20;101458.41;;;17.52;81.44
61394;BME280;48555;50.952;-0.120;2023-08-17T04:09:45;101457.16;;;17.56;81.33
61394;BME280;48555;50.952;-0.120;2023-08-17T04:12:10;101462.31;;;17.58;81.23
61394;BME280;48555;50.952;-0.120;2023-08-17T04:14:36;101459.53;;;17.59;81.09
61394;BME280;48555;50.952;-0.120;2023-08-17T04:17:01;101457.84;;;17.58;81.13
61394;BME280;48555;50.952;-0.120;2023-08-17T04:19:26;101449.34;;;17.55;81.32
61394;BME280;48555;50.952;-0.120;2023-08-17T04:21:52;101446.28;;;17.49;81.15
61394;BME280;48555;50.952;-0.120;2023-08-17T04:24:17;101438.06;;;17.43;81.51
61394;BME280;48555;50.952;-0.120;2023-08-17T04:26:43;101445.44;;;17.39;82.01
61394;BME280;48555;50.952;-0.120;2023-08-17T04:29:08;101443.22;;;17.35;82.10
61394;BME280;48555;50.952;-0.120;2023-08-17T04:31:33;101440.72;;;17.33;82.16
61394;BME280;48555;50.952;-0.120;2023-08-17T04:33:59;101436.38;;;17.32;82.16
61394;BME280;48555;50.952;-0.120;2023-08-17T04:36:24;101436.66;;;17.29;82.11
61394;BME280;48555;50.952;-0.120;2023-08-17T04:38:49;101436.81;;;17.28;81.96
61394;BME280;48555;50.952;-0.120;2023-08-17T04:41:15;101435.00;;;17.28;81.69
61394;BME280;48555;50.952;-0.120;2023-08-17T04:43:41;101443.63;;;17.30;81.61
61394;BME280;48555;50.952;-0.120;2023-08-17T04:46:08;101441.09;;;17.29;81.60
61394;BME280;48555;50.952;-0.120;2023-08-17T04:48:33;101442.81;;;17.30;81.13
61394;BME280;48555;50.952;-0.120;2023-08-17T04:50:58;101437.78;;;17.27;81.38
61394;BME280;48555;50.952;-0.120;2023-08-17T04:53:24;101435.53;;;17.22;81.47
61394;BME280;48555;50.952;-0.120;2023-08-17T04:55:49;101448.75;;;17.22;82.04
61394;BME280;48555;50.952;-0.120;2023-08-17T04:58:14;101455.59;;;17.24;81.94
61394;BME280;48555;50.952;-0.120;2023-08-17T05:00:40;101451.00;;;17.27;81.97
61394;BME280;48555;50.952;-0.120;2023-08-17T05:03:05;101436.38;;;17.22;82.17
61394;BME280;48555;50.952;-0.120;2023-08-17T05:05:30;101445.28;;;17.21;82.39
61394;BME280;48555;50.952;-0.120;2023-08-17T05:07:56;101451.25;;;17.23;82.62
61394;BME280;48555;50.952;-0.120;2023-08-17T05:10:21;101446.94;;;17.22;83.39
61394;BME280;48555;50.952;-0.120;2023-08-17T05:12:46;101436.22;;;17.14;83.54
61394;BME280;48555;50.952;-0.120;2023-08-17T05:15:12;101451.84;;;17.27;83.70
61394;BME280;48555;50.952;-0.120;2023-08-17T05:17:37;101457.53;;;17.32;83.81
61394;BME280;48555;50.952;-0.120;2023-08-17T05:20:03;101459.66;;;17.38;83.94
61394;BME280;48555;50.952;-0.120;2023-08-17T05:22:30;101459.78;;;17.46;84.22
61394;BME280;48555;50.952;-0.120;2023-08-17T05:24:55;101459.94;;;17.55;83.93
61394;BME280;48555;50.952;-0.120;2023-08-17T05:27:20;101459.25;;;17.62;84.13
61394;BME280;48555;50.952;-0.120;2023-08-17T05:29:46;101455.06;;;17.69;84.02
61394;BME280;48555;50.952;-0.120;2023-08-17T05:32:11;101461.63;;;17.75;84.03
61394;BME280;48555;50.952;-0.120;2023-08-17T05:34:36;101448.97;;;17.79;84.07
61394;BME280;48555;50.952;-0.120;2023-08-17T05:37:02;101438.69;;;17.85;84.30
61394;BME280;48555;50.952;-0.120;2023-08-17T05:39:28;101449.81;;;17.99;84.45
61394;BME280;48555;50.952;-0.120;2023-08-17T05:41:53;101443.81;;;18.06;84.71
61394;BME280;48555;50.952;-0.120;2023-08-17T05:44:18;101444.06;;;18.13;84.79
61394;BME280;48555;50.952;-0.120;2023-08-17T05:46:44;101443.38;;;18.21;84.90
61394;BME280;48555;50.952;-0.120;2023-08-17T05:49:09;101435.00;;;18.25;85.31
61394;BME280;48555;50.952;-0.120;2023-08-17T05:51:35;101445.00;;;18.31;85.68
61394;BME280;48555;50.952;-0.120;2023-08-17T05:54:00;101451.53;;;18.37;85.77
61394;BME280;48555;50.952;-0.120;2023-08-17T05:56:25;101449.97;;;18.44;85.79
61394;BME280;48555;50.952;-0.120;2023-08-17T05:58:51;101446.78;;;18.50;86.09
61394;BME280;48555;50.952;-0.120;2023-08-17T06:01:16;101432.66;;;18.59;86.25
61394;BME280;48555;50.952;-0.120;2023-08-17T06:03:41;101444.97;;;18.88;86.11
61394;BME280;48555;50.952;-0.120;2023-08-17T06:06:07;101445.44;;;19.29;86.16
61394;BME280;48555;50.952;-0.120;2023-08-17T06:08:32;101452.13;;;19.87;85.24
61394;BME280;48555;50.952;-0.120;2023-08-17T06:10:58;101450.72;;;20.45;84.23
61394;BME280;48555;50.952;-0.120;2023-08-17T06:13:23;101448.84;;;21.05;82.21
61394;BME280;48555;50.952;-0.120;2023-08-17T06:15:48;101446.34;;;21.54;79.67
61394;BME280;48555;50.952;-0.120;2023-08-17T06:18:14;101458.84;;;21.95;77.96
61394;BME280;48555;50.952;-0.120;2023-08-17T06:20:39;101463.31;;;22.35;76.31
61394;BME280;48555;50.952;-0.120;2023-08-17T06:23:05;101458.38;;;22.80;75.43
61394;BME280;48555;50.952;-0.120;2023-08-17T06:25:30;101455.09;;;23.09;72.25
61394;BME280;48555;50.952;-0.120;2023-08-17T06:27:55;101454.41;;;23.38;71.20
61394;BME280;48555;50.952;-0.120;2023-08-17T06:30:21;101468.56;;;23.70;70.43
61394;BME280;48555;50.952;-0.120;2023-08-17T06:32:46;101467.16;;;23.97;68.74
61394;BME280;48555;50.952;-0.120;2023-08-17T06:35:12;101473.03;;;24.15;66.65
61394;BME280;48555;50.952;-0.120;2023-08-17T06:37:37;101459.84;;;24.29;65.93
61394;BME280;48555;50.952;-0.120;2023-08-17T06:40:06;101465.78;;;24.39;64.82
61394;BME280;48555;50.952;-0.120;2023-08-17T06:42:31;101466.69;;;24.31;64.43
61394;BME280;48555;50.952;-0.120;2023-08-17T06:44:57;101462.09;;;24.40;64.49
61394;BME280;48555;50.952;-0.120;2023-08-17T06:47:22;101459.78;;;24.37;64.47
61394;BME280;48555;50.952;-0.120;2023-08-17T06:49:47;101457.06;;;24.60;63.60
61394;BME280;48555;50.952;-0.120;2023-08-17T06:52:13;101461.00;;;24.64;63.41
61394;BME280;48555;50.952;-0.120;2023-08-17T06:54:38;101459.38;;;24.48;63.56
61394;BME280;48555;50.952;-0.120;2023-08-17T06:57:04;101462.22;;;24.46;63.55
61394;BME280;48555;50.952;-0.120;2023-08-17T06:59:29;101462.03;;;24.78;62.68
61394;BME280;48555;50.952;-0.120;2023-08-17T07:01:54;101469.19;;;25.07;62.08
61394;BME280;48555;50.952;-0.120;2023-08-17T07:04:20;101467.59;;;25.12;61.22
61394;BME280;48555;50.952;-0.120;2023-08-17T07:06:45;101473.84;;;25.34;60.99
61394;BME280;48555;50.952;-0.120;2023-08-17T07:09:10;101479.53;;;25.46;60.07
61394;BME280;48555;50.952;-0.120;2023-08-17T07:11:37;101472.41;;;25.53;59.94
61394;BME280;48555;50.952;-0.120;2023-08-17T07:14:03;101481.69;;;25.36;59.52
61394;BME280;48555;50.952;-0.120;2023-08-17T07:16:28;101477.81;;;25.60;59.69
61394;BME280;48555;50.952;-0.120;2023-08-17T07:18:54;101479.94;;;25.86;58.90
61394;BME280;48555;50.952;-0.120;2023-08-17T07:21:19;101479.53;;;25.68;58.95
61394;BME280;48555;50.952;-0.120;2023-08-17T07:23:45;101474.47;;;25.79;58.27
61394;BME280;48555;50.952;-0.120;2023-08-17T07:26:10;101472.44;;;25.81;58.05
61394;BME280;48555;50.952;-0.120;2023-08-17T07:28:36;101472.94;;;25.70;58.81
61394;BME280;48555;50.952;-0.120;2023-08-17T07:31:01;101475.97;;;25.82;58.80
61394;BME280;48555;50.952;-0.120;2023-08-17T07:33:26;101465.34;;;25.89;57.99
61394;BME280;48555;50.952;-0.120;2023-08-17T07:35:52;101472.78;;;25.93;57.77
61394;BME280;48555;50.952;-0.120;2023-08-17T07:38:18;101463.66;;;25.88;57.57
61394;BME280;48555;50.952;-0.120;2023-08-17T07:40:44;101459.66;;;25.77;57.46
61394;BME280;48555;50.952;-0.120;2023-08-17T07:43:09;101462.38;;;25.41;58.20
61394;BME280;48555;50.952;-0.120;2023-08-17T07:45:35;101462.78;;;25.23;58.95
61394;BME280;48555;50.952;-0.120;2023-08-17T07:48:00;101457.38;;;25.01;59.92
61394;BME280;48555;50.952;-0.120;2023-08-17T07:50:25;101462.19;;;24.76;60.47
61394;BME280;48555;50.952;-0.120;2023-08-17T07:52:51;101461.31;;;24.54;61.39
61394;BME280;48555;50.952;-0.120;2023-08-17T07:55:16;101466.31;;;24.19;62.91
61394;BME280;48555;50.952;-0.120;2023-08-17T07:57:41;101465.94;;;24.22;63.09
61394;BME280;48555;50.952;-0.120;2023-08-17T08:00:07;101457.19;;;24.29;63.64
61394;BME280;48555;50.952;-0.120;2023-08-17T08:02:32;101474.59;;;24.62;63.54
61394;BME280;48555;50.952;-0.120;2023-08-17T08:04:58;101471.59;;;24.87;62.57
61394;BME280;48555;50.952;-0.120;2023-08-17T08:07:23;101468.72;;;25.03;61.10
61394;BME280;48555;50.952;-0.120;2023-08-17T08:09:48;101473.72;;;25.06;61.19
61394;BME280;48555;50.952;-0.120;2023-08-17T08:12:14;101465.94;;;25.11;60.78
61394;BME280;48555;50.952;-0.120;2023-08-17T08:14:39;101470.81;;;25.23;60.63
61394;BME280;48555;50.952;-0.120;2023-08-17T08:17:04;101469.25;;;25.28;60.29
61394;BME280;48555;50.952;-0.120;2023-08-17T08:19:30;101466.63;;;25.35;59.58
61394;BME280;48555;50.952;-0.120;2023-08-17T08:21:57;101466.56;;;25.28;59.74
61394;BME280;48555;50.952;-0.120;2023-08-17T08:24:23;101460.50;;;25.20;59.89
61394;BME280;48555;50.952;-0.120;2023-08-17T08:26:48;101445.75;;;25.24;59.85
61394;BME280;48555;50.952;-0.120;2023-08-17T08:29:13;101442.75;;;25.33;59.60
61394;BME280;48555;50.952;-0.120;2023-08-17T08:31:39;101441.97;;;25.18;59.54
61394;BME280;48555;50.952;-0.120;2023-08-17T08:34:04;101430.91;;;25.06;59.12
61394;BME280;48555;50.952;-0.120;2023-08-17T08:36:29;101429.31;;;25.12;59.19
61394;BME280;48555;50.952;-0.120;2023-08-17T08:38:55;101428.13;;;25.00;59.66
61394;BME280;48555;50.952;-0.120;2023-08-17T08:41:21;101424.63;;;24.99;59.59
61394;BME280;48555;50.952;-0.120;2023-08-17T08:43:47;101417.91;;;25.03;59.63
61394;BME280;48555;50.952;-0.120;2023-08-17T08:46:13;101433.78;;;25.26;58.71
61394;BME280;48555;50.952;-0.120;2023-08-17T08:48:41;101427.63;;;25.11;58.30
61394;BME280;48555;50.952;-0.120;2023-08-17T08:51:08;101427.88;;;24.95;58.67
61394;BME280;48555;50.952;-0.120;2023-08-17T08:53:44;101431.94;;;24.90;59.50
61394;BME280;48555;50.952;-0.120;2023-08-17T08:56:15;101435.50;;;25.12;59.88
61394;BME280;48555;50.952;-0.120;2023-08-17T08:58:45;101434.38;;;25.43;58.21
61394;BME280;48555;50.952;-0.120;2023-08-17T09:01:12;101425.84;;;25.33;58.33
61394;BME280;48555;50.952;-0.120;2023-08-17T09:03:38;101428.75;;;25.38;57.58
61394;BME280;48555;50.952;-0.120;2023-08-17T09:06:04;101428.66;;;25.46;58.05
61394;BME280;48555;50.952;-0.120;2023-08-17T09:08:30;101436.94;;;25.30;57.42
61394;BME280;48555;50.952;-0.120;2023-08-17T09:10:56;101432.72;;;25.06;57.87
61394;BME280;48555;50.952;-0.120;2023-08-17T09:13:21;101436.41;;;25.05;57.88
61394;BME280;48555;50.952;-0.120;2023-08-17T09:15:47;101425.41;;;24.78;58.89
61394;BME280;48555;50.952;-0.120;2023-08-17T09:18:12;101428.56;;;24.52;59.11
61394;BME280;48555;50.952;-0.120;2023-08-17T09:20:44;101430.25;;;24.53;59.79
61394;BME280;48555;50.952;-0.120;2023-08-17T09:23:18;101430.22;;;24.68;60.46
61394;BME280;48555;50.952;-0.120;2023-08-17T09:25:45;101444.66;;;25.03;58.74
61394;BME280;48555;50.952;-0.120;2023-08-17T09:28:13;101437.00;;;25.15;58.30
61394;BME280;48555;50.952;-0.120;2023-08-17T09:31:05;101437.34;;;25.12;58.38
61394;BME280;48555;50.952;-0.120;2023-08-17T09:33:31;101435.75;;;25.18;57.36
61394;BME280;48555;50.952;-0.120;2023-08-17T09:35:57;101434.19;;;25.08;57.55
61394;BME280;48555;50.952;-0.120;2023-08-17T09:38:24;101425.91;;;25.03;58.54
61394;BME280;48555;50.952;-0.120;2023-08-17T09:40:50;101423.31;;;25.10;58.15
61394;BME280;48555;50.952;-0.120;2023-08-17T09:43:16;101420.94;;;25.15;56.96
61394;BME280;48555;50.952;-0.120;2023-08-17T09:45:45;101424.78;;;25.12;57.71
61394;BME280;48555;50.952;-0.120;2023-08-17T09:48:15;101424.25;;;25.02;58.02
61394;BME280;48555;50.952;-0.120;2023-08-17T09:50:42;101421.56;;;25.17;56.50
61394;BME280;48555;50.952;-0.120;2023-08-17T09:53:12;101422.53;;;25.31;56.82
61394;BME280;48555;50.952;-0.120;2023-08-17T09:55:38;101426.78;;;25.47;57.58
61394;BME280;48555;50.952;-0.120;2023-08-17T09:58:05;101416.22;;;25.38;56.00
61394;BME280;48555;50.952;-0.120;2023-08-17T10:00:31;101425.75;;;25.26;55.38
61394;BME280;48555;50.952;-0.120;2023-08-17T10:02:58;101421.25;;;25.27;54.60
61394;BME280;48555;50.952;-0.120;2023-08-17T10:05:28;101434.81;;;25.25;55.26
61394;BME280;48555;50.952;-0.120;2023-08-17T10:07:57;101421.88;;;25.29;54.70
61394;BME280;48555;50.952;-0.120;2023-08-17T10:10:26;101427.81;;;25.46;54.99
61394;BME280;48555;50.952;-0.120;2023-08-17T10:15:33;101423.34;;;25.31;54.90
61394;BME280;48555;50.952;-0.120;2023-08-17T10:18:09;101418.06;;;25.17;55.20
61394;BME280;48555;50.952;-0.120;2023-08-17T10:20:38;101418.69;;;25.19;55.42
61394;BME280;48555;50.952;-0.120;2023-08-17T10:23:12;101422.94;;;25.13;55.31
61394;BME280;48555;50.952;-0.120;2023-08-17T10:25:40;101428.28;;;25.13;54.68
61394;BME280;48555;50.952;-0.120;2023-08-17T10:28:08;101415.38;;;25.17;54.96
61394;BME280;48555;50.952;-0.120;2023-08-17T10:30:35;101417.03;;;25.18;55.56
61394;BME280;48555;50.952;-0.120;2023-08-17T10:33:01;101426.78;;;25.25;54.56
61394;BME280;48555;50.952;-0.120;2023-08-17T10:35:29;101422.38;;;25.18;54.37
61394;BME280;48555;50.952;-0.120;2023-08-17T10:37:55;101418.69;;;25.19;54.54
61394;BME280;48555;50.952;-0.120;2023-08-17T10:40:27;101414.47;;;25.09;54.37
61394;BME280;48555;50.952;-0.120;2023-08-17T10:42:54;101424.66;;;25.21;54.71
61394;BME280;48555;50.952;-0.120;2023-08-17T10:45:30;101421.19;;;25.20;54.88
61394;BME280;48555;50.952;-0.120;2023-08-17T10:50:30;101421.75;;;25.37;54.45
61394;BME280;48555;50.952;-0.120;2023-08-17T10:52:55;101413.94;;;25.57;54.23
61394;BME280;48555;50.952;-0.120;2023-08-17T10:55:37;101416.78;;;25.77;53.41
61394;BME280;48555;50.952;-0.120;2023-08-17T10:58:04;101408.88;;;25.69;52.73
61394;BME280;48555;50.952;-0.120;2023-08-17T11:00:34;101428.09;;;25.79;53.01
61394;BME280;48555;50.952;-0.120;2023-08-17T11:03:04;101401.53;;;25.77;52.16
61394;BME280;48555;50.952;-0.120;2023-08-17T11:08:41;101392.75;;;25.83;51.69
61394;BME280;48555;50.952;-0.120;2023-08-17T11:11:16;101399.81;;;25.70;50.82
61394;BME280;48555;50.952;-0.120;2023-08-17T11:13:45;101387.00;;;25.87;50.68
61394;BME280;48555;50.952;-0.120;2023-08-17T11:16:13;101396.75;;;25.94;49.63
61394;BME280;48555;50.952;-0.120;2023-08-17T11:18:39;101401.75;;;26.04;50.17
61394;BME280;48555;50.952;-0.120;2023-08-17T11:21:06;101385.66;;;26.04;49.56
61394;BME280;48555;50.952;-0.120;2023-08-17T11:23:34;101384.72;;;26.18;49.06
61394;BME280;48555;50.952;-0.120;2023-08-17T11:26:00;101396.78;;;26.36;48.81
61394;BME280;48555;50.952;-0.120;2023-08-17T11:28:26;101399.50;;;26.42;46.64
61394;BME280;48555;50.952;-0.120;2023-08-17T11:30:59;101381.72;;;26.35;46.48
61394;BME280;48555;50.952;-0.120;2023-08-17T11:33:28;101388.84;;;26.56;47.09
61394;BME280;48555;50.952;-0.120;2023-08-17T11:36:05;101397.19;;;26.74;47.91
61394;BME280;48555;50.952;-0.120;2023-08-17T11:38:36;101383.38;;;26.77;48.28
61394;BME280;48555;50.952;-0.120;2023-08-17T11:41:03;101369.34;;;26.82;47.76
61394;BME280;48555;50.952;-0.120;2023-08-17T11:43:29;101362.16;;;26.89;47.75
61394;BME280;48555;50.952;-0.120;2023-08-17T11:45:55;101372.47;;;26.92;47.86
61394;BME280;48555;50.952;-0.120;2023-08-17T11:48:21;101373.47;;;26.84;46.86
61394;BME280;48555;50.952;-0.120;2023-08-17T11:50:48;101368.09;;;26.71;47.15
61394;BME280;48555;50.952;-0.120;2023-08-17T11:53:14;101359.34;;;26.56;47.96
61394;BME280;48555;50.952;-0.120;2023-08-17T11:55:40;101364.63;;;26.36;48.16
61394;BME280;48555;50.952;-0.120;2023-08-17T11:58:05;101371.72;;;26.15;47.98
61394;BME280;48555;50.952;-0.120;2023-08-17T12:00:36;101377.47;;;26.12;48.30
61394;BME280;48555;50.952;-0.120;2023-08-17T12:03:02;101374.94;;;26.04;47.07
61394;BME280;48555;50.952;-0.120;2023-08-17T12:05:30;101382.06;;;25.90;47.58
61394;BME280;48555;50.952;-0.120;2023-08-17T12:07:56;101361.97;;;25.79;47.79
61394;BME280;48555;50.952;-0.120;2023-08-17T12:10:22;101376.13;;;25.73;48.18
61394;BME280;48555;50.952;-0.120;2023-08-17T12:12:48;101376.34;;;25.72;48.00
61394;BME280;48555;50.952;-0.120;2023-08-17T12:15:14;101368.25;;;25.65;47.96
61394;BME280;48555;50.952;-0.120;2023-08-17T12:17:44;101360.22;;;25.65;47.72
61394;BME280;48555;50.952;-0.120;2023-08-17T12:20:15;101360.28;;;25.72;48.03
61394;BME280;48555;50.952;-0.120;2023-08-17T12:22:40;101354.06;;;25.43;48.01
61394;BME280;48555;50.952;-0.120;2023-08-17T12:25:07;101357.25;;;25.53;47.97
61394;BME280;48555;50.952;-0.120;2023-08-17T12:27:33;101365.50;;;25.58;47.95
61394;BME280;48555;50.952;-0.120;2023-08-17T12:29:58;101354.88;;;25.65;48.18
61394;BME280;48555;50.952;-0.120;2023-08-17T12:32:23;101345.38;;;25.63;48.23
61394;BME280;48555;50.952;-0.120;2023-08-17T12:34:49;101352.03;;;25.73;48.03
61394;BME280;48555;50.952;-0.120;2023-08-17T12:37:19;101336.72;;;25.67;47.53
61394;BME280;48555;50.952;-0.120;2023-08-17T12:39:45;101340.50;;;25.73;47.54
61394;BME280;48555;50.952;-0.120;2023-08-17T12:42:10;101329.81;;;25.79;47.99
61394;BME280;48555;50.952;-0.120;2023-08-17T12:44:35;101343.91;;;25.88;47.62